sensor_id;sensor_type;location;lat;lon;timestamp;P1;durP1;ratioP1;P2;durP2;ratioP2
37609;SDS011;23457;51.966;8.230;2024-03-08T00:00:06;35.92;;;18.75;;
37609;SDS011;23457;51.966;8.230;2024-03-08T00:02:43;35.20;;;18.88;;
37609;SDS011;23457;51.966;8.230;2024-03-08T00:05:12;34.00;;;20.25;;
37609;SDS011;23457;51.966;8.230;2024-03-08T00:07:39;34.58;;;19.90;;
37609;SDS011;23457;51.966;8.230;2024-03-08T00:10:08;33.17;;;18.98;;
37609;SDS011;23457;51.966;8.230;2024-03-08T00:12:39;33.95;;;18.92;;
37609;SDS011;23457;51.966;8.230;2024-03-08T00:15:15;36.83;;;19.70;;
37609;SDS011;23457;51.966;8.230;2024-03-08T00:17:45;35.75;;;19.48;;
37609;SDS011;23457;51.966;8.230;2024-03-08T00:20:13;37.25;;;20.30;;
37609;SDS011;23457;51.966;8.230;2024-03-08T00:22:41;34.83;;;19.33;;
37609;SDS011;23457;51.966;8.230;2024-03-08T00:25:07;35.45;;;19.55;;
37609;SDS011;23457;51.966;8.230;2024-03-08T00:27:41;37.30;;;19.95;;
37609;SDS011;23457;51.966;8.230;2024-03-08T00:30:07;36.25;;;20.55;;
37609;SDS011;23457;51.966;8.230;2024-03-08T00:32:35;38.05;;;20.48;;
37609;SDS011;23457;51.966;8.230;2024-03-08T00:35:03;38.28;;;20.60;;
37609;SDS011;23457;51.966;8.230;2024-03-08T00:37:30;39.70;;;20.63;;
37609;SDS011;23457;51.966;8.230;2024-03-08T00:39:57;36.90;;;20.73;;
37609;SDS011;23457;51.966;8.230;2024-03-08T00:42:24;39.58;;;20.92;;
37609;SDS011;23457;51.966;8.230;2024-03-08T00:44:51;37.40;;;20.65;;
37609;SDS011;23457;51.966;8.230;2024-03-08T00:47:18;42.13;;;21.42;;
37609;SDS011;23457;51.966;8.230;2024-03-08T00:49:45;39.20;;;21.02;;
37609;SDS011;23457;51.966;8.230;2024-03-08T00:52:13;40.85;;;20.70;;
37609;SDS011;23457;51.966;8.230;2024-03-08T00:54:39;45.80;;;22.80;;
37609;SDS011;23457;51.966;8.230;2024-03-08T00:57:06;46.28;;;22.52;;
37609;SDS011;23457;51.966;8.230;2024-03-08T00:59:33;38.40;;;20.70;;
37609;SDS011;23457;51.966;8.230;2024-03-08T01:02:01;41.72;;;22.27;;
37609;SDS011;23457;51.966;8.230;2024-03-08T01:04:28;43.53;;;22.67;;
37609;SDS011;23457;51.966;8.230;2024-03-08T01:06:55;40.58;;;21.67;;
37609;SDS011;23457;51.966;8.230;2024-03-08T01:09:23;42.40;;;22.30;;
37609;SDS011;23457;51.966;8.230;2024-03-08T01:11:50;39.60;;;21.45;;
37609;SDS011;23457;51.966;8.230;2024-03-08T01:14:17;40.67;;;21.35;;
37609;SDS011;23457;51.966;8.230;2024-03-08T01:16:43;42.13;;;22.08;;
37609;SDS011;23457;51.966;8.230;2024-03-08T01:19:10;45.65;;;23.63;;
37609;SDS011;23457;51.966;8.230;2024-03-08T01:21:36;40.47;;;21.65;;
37609;SDS011;23457;51.966;8.230;2024-03-08T01:24:03;43.35;;;22.52;;
37609;SDS011;23457;51.966;8.230;2024-03-08T01:26:31;39.60;;;21.85;;
37609;SDS011;23457;51.966;8.230;2024-03-08T01:28:57;39.92;;;21.90;;
37609;SDS011;23457;51.966;8.230;2024-03-08T01:31:25;36.55;;;20.60;;
37609;SDS011;23457;51.966;8.230;2024-03-08T01:33:51;38.85;;;22.60;;
37609;SDS011;23457;51.966;8.230;2024-03-08T01:36:19;39.17;;;21.95;;
37609;SDS011;23457;51.966;8.230;2024-03-08T01:38:46;38.35;;;21.88;;
37609;SDS011;23457;51.966;8.230;2024-03-08T01:41:13;38.78;;;22.48;;
37609;SDS011;23457;51.966;8.230;2024-03-08T01:43:40;38.15;;;21.55;;
37609;SDS011;23457;51.966;8.230;2024-03-08T01:46:07;39.28;;;21.95;;
37609;SDS011;23457;51.966;8.230;2024-03-08T01:48:35;42.38;;;21.92;;
37609;SDS011;23457;51.966;8.230;2024-03-08T01:51:03;42.63;;;22.25;;
37609;SDS011;23457;51.966;8.230;2024-03-08T01:53:30;42.63;;;23.33;;
37609;SDS011;23457;51.966;8.230;2024-03-08T01:55:57;40.80;;;23.45;;
37609;SDS011;23457;51.966;8.230;2024-03-08T01:58:26;44.10;;;22.60;;
37609;SDS011;23457;51.966;8.230;2024-03-08T02:03:22;43.75;;;21.65;;
37609;SDS011;23457;51.966;8.230;2024-03-08T02:05:49;48.42;;;24.17;;
37609;SDS011;23457;51.966;8.230;2024-03-08T02:08:18;43.67;;;23.45;;
37609;SDS011;23457;51.966;8.230;2024-03-08T02:10:49;42.78;;;23.00;;
37609;SDS011;23457;51.966;8.230;2024-03-08T02:13:16;40.58;;;23.35;;
37609;SDS011;23457;51.966;8.230;2024-03-08T02:16:19;40.65;;;22.23;;
37609;SDS011;23457;51.966;8.230;2024-03-08T02:18:36;46.85;;;23.75;;
37609;SDS011;23457;51.966;8.230;2024-03-08T02:21:04;42.33;;;23.10;;
37609;SDS011;23457;51.966;8.230;2024-03-08T02:23:33;41.63;;;23.55;;
37609;SDS011;23457;51.966;8.230;2024-03-08T02:26:00;45.30;;;23.92;;
37609;SDS011;23457;51.966;8.230;2024-03-08T02:28:26;43.20;;;23.90;;
37609;SDS011;23457;51.966;8.230;2024-03-08T02:30:53;44.47;;;24.92;;
37609;SDS011;23457;51.966;8.230;2024-03-08T02:33:24;43.35;;;23.55;;
37609;SDS011;23457;51.966;8.230;2024-03-08T02:35:54;43.28;;;24.25;;
37609;SDS011;23457;51.966;8.230;2024-03-08T02:38:22;45.58;;;23.65;;
37609;SDS011;23457;51.966;8.230;2024-03-08T02:43:18;42.60;;;23.60;;
37609;SDS011;23457;51.966;8.230;2024-03-08T02:45:46;46.17;;;24.48;;
37609;SDS011;23457;51.966;8.230;2024-03-08T02:48:13;45.30;;;24.67;;
37609;SDS011;23457;51.966;8.230;2024-03-08T02:50:41;47.08;;;26.05;;
37609;SDS011;23457;51.966;8.230;2024-03-08T02:53:12;43.20;;;24.90;;
37609;SDS011;23457;51.966;8.230;2024-03-08T02:55:39;44.55;;;24.27;;
37609;SDS011;23457;51.966;8.230;2024-03-08T02:58:07;42.60;;;24.70;;
37609;SDS011;23457;51.966;8.230;2024-03-08T03:00:38;42.50;;;24.42;;
37609;SDS011;23457;51.966;8.230;2024-03-08T03:03:06;46.55;;;25.83;;
37609;SDS011;23457;51.966;8.230;2024-03-08T03:05:33;43.78;;;25.25;;
37609;SDS011;23457;51.966;8.230;2024-03-08T03:08:00;45.47;;;24.88;;
37609;SDS011;23457;51.966;8.230;2024-03-08T03:10:27;42.42;;;25.23;;
37609;SDS011;23457;51.966;8.230;2024-03-08T03:12:54;43.65;;;24.50;;
37609;SDS011;23457;51.966;8.230;2024-03-08T03:15:21;46.88;;;25.10;;
37609;SDS011;23457;51.966;8.230;2024-03-08T03:17:50;42.13;;;25.52;;
37609;SDS011;23457;51.966;8.230;2024-03-08T03:20:17;42.90;;;24.60;;
37609;SDS011;23457;51.966;8.230;2024-03-08T03:22:59;45.03;;;24.88;;
37609;SDS011;23457;51.966;8.230;2024-03-08T03:25:28;46.90;;;25.27;;
37609;SDS011;23457;51.966;8.230;2024-03-08T03:28:02;50.17;;;25.02;;
37609;SDS011;23457;51.966;8.230;2024-03-08T03:30:29;45.67;;;24.50;;
37609;SDS011;23457;51.966;8.230;2024-03-08T03:33:02;45.70;;;25.25;;
37609;SDS011;23457;51.966;8.230;2024-03-08T03:35:34;45.55;;;25.17;;
37609;SDS011;23457;51.966;8.230;2024-03-08T03:38:03;35.30;;;19.17;;
37609;SDS011;23457;51.966;8.230;2024-03-08T03:40:34;46.80;;;25.02;;
37609;SDS011;23457;51.966;8.230;2024-03-08T03:43:02;43.17;;;24.40;;
37609;SDS011;23457;51.966;8.230;2024-03-08T03:45:29;45.05;;;24.67;;
37609;SDS011;23457;51.966;8.230;2024-03-08T03:48:03;44.90;;;24.90;;
37609;SDS011;23457;51.966;8.230;2024-03-08T03:50:31;45.30;;;23.90;;
37609;SDS011;23457;51.966;8.230;2024-03-08T03:53:01;46.00;;;26.13;;
37609;SDS011;23457;51.966;8.230;2024-03-08T03:55:29;44.67;;;24.55;;
37609;SDS011;23457;51.966;8.230;2024-03-08T03:57:55;44.00;;;25.73;;
37609;SDS011;23457;51.966;8.230;2024-03-08T04:00:22;47.47;;;25.20;;
37609;SDS011;23457;51.966;8.230;2024-03-08T04:02:49;45.25;;;25.15;;
37609;SDS011;23457;51.966;8.230;2024-03-08T04:05:17;41.90;;;23.92;;
37609;SDS011;23457;51.966;8.230;2024-03-08T04:07:44;46.25;;;25.70;;
37609;SDS011;23457;51.966;8.230;2024-03-08T04:10:18;46.47;;;24.50;;
37609;SDS011;23457;51.966;8.230;2024-03-08T04:12:45;47.83;;;25.13;;
37609;SDS011;23457;51.966;8.230;2024-03-08T04:15:11;49.22;;;25.25;;
37609;SDS011;23457;51.966;8.230;2024-03-08T04:17:39;45.58;;;25.00;;
37609;SDS011;23457;51.966;8.230;2024-03-08T04:20:06;48.63;;;26.08;;
37609;SDS011;23457;51.966;8.230;2024-03-08T04:22:37;43.53;;;25.10;;
37609;SDS011;23457;51.966;8.230;2024-03-08T04:25:06;34.37;;;18.70;;
37609;SDS011;23457;51.966;8.230;2024-03-08T04:27:34;46.15;;;24.95;;
37609;SDS011;23457;51.966;8.230;2024-03-08T04:30:02;47.33;;;25.50;;
37609;SDS011;23457;51.966;8.230;2024-03-08T04:32:30;48.97;;;24.58;;
37609;SDS011;23457;51.966;8.230;2024-03-08T04:34:59;50.22;;;25.48;;
37609;SDS011;23457;51.966;8.230;2024-03-08T04:37:28;47.00;;;25.17;;
37609;SDS011;23457;51.966;8.230;2024-03-08T04:39:56;44.50;;;25.63;;
37609;SDS011;23457;51.966;8.230;2024-03-08T04:42:23;50.60;;;25.83;;
37609;SDS011;23457;51.966;8.230;2024-03-08T04:44:50;45.78;;;25.70;;
37609;SDS011;23457;51.966;8.230;2024-03-08T04:47:17;48.13;;;25.23;;
37609;SDS011;23457;51.966;8.230;2024-03-08T04:49:44;45.50;;;24.85;;
37609;SDS011;23457;51.966;8.230;2024-03-08T04:52:11;53.92;;;27.17;;
37609;SDS011;23457;51.966;8.230;2024-03-08T04:54:38;56.70;;;27.05;;
37609;SDS011;23457;51.966;8.230;2024-03-08T04:57:05;51.05;;;27.63;;
37609;SDS011;23457;51.966;8.230;2024-03-08T05:02:02;51.35;;;26.55;;
37609;SDS011;23457;51.966;8.230;2024-03-08T05:04:29;51.97;;;25.75;;
37609;SDS011;23457;51.966;8.230;2024-03-08T05:06:56;54.28;;;26.73;;
37609;SDS011;23457;51.966;8.230;2024-03-08T05:09:23;56.92;;;26.05;;
37609;SDS011;23457;51.966;8.230;2024-03-08T05:11:50;51.38;;;26.58;;
37609;SDS011;23457;51.966;8.230;2024-03-08T05:14:17;63.50;;;27.88;;
37609;SDS011;23457;51.966;8.230;2024-03-08T05:16:46;60.92;;;27.17;;
37609;SDS011;23457;51.966;8.230;2024-03-08T05:19:19;59.05;;;27.42;;
37609;SDS011;23457;51.966;8.230;2024-03-08T05:21:47;56.95;;;27.70;;
37609;SDS011;23457;51.966;8.230;2024-03-08T05:24:16;70.80;;;28.98;;
37609;SDS011;23457;51.966;8.230;2024-03-08T05:26:45;60.63;;;27.95;;
37609;SDS011;23457;51.966;8.230;2024-03-08T05:29:13;64.10;;;27.92;;
37609;SDS011;23457;51.966;8.230;2024-03-08T05:31:47;65.20;;;28.95;;
37609;SDS011;23457;51.966;8.230;2024-03-08T05:34:15;61.15;;;27.52;;
37609;SDS011;23457;51.966;8.230;2024-03-08T05:36:43;60.72;;;28.83;;
37609;SDS011;23457;51.966;8.230;2024-03-08T05:39:11;64.90;;;29.20;;
37609;SDS011;23457;51.966;8.230;2024-03-08T05:41:39;59.92;;;28.50;;
37609;SDS011;23457;51.966;8.230;2024-03-08T05:44:07;66.28;;;29.17;;
37609;SDS011;23457;51.966;8.230;2024-03-08T05:46:34;72.60;;;31.25;;
37609;SDS011;23457;51.966;8.230;2024-03-08T05:49:05;66.90;;;29.58;;
37609;SDS011;23457;51.966;8.230;2024-03-08T05:51:33;67.90;;;29.77;;
37609;SDS011;23457;51.966;8.230;2024-03-08T05:54:01;59.25;;;28.35;;
37609;SDS011;23457;51.966;8.230;2024-03-08T05:56:36;54.92;;;27.15;;
37609;SDS011;23457;51.966;8.230;2024-03-08T05:59:05;47.63;;;25.58;;
37609;SDS011;23457;51.966;8.230;2024-03-08T06:01:31;51.88;;;26.75;;
37609;SDS011;23457;51.966;8.230;2024-03-08T06:03:58;46.22;;;26.08;;
37609;SDS011;23457;51.966;8.230;2024-03-08T06:06:25;49.15;;;26.58;;
37609;SDS011;23457;51.966;8.230;2024-03-08T06:08:52;42.38;;;25.05;;
37609;SDS011;23457;51.966;8.230;2024-03-08T06:11:19;47.53;;;26.75;;
37609;SDS011;23457;51.966;8.230;2024-03-08T06:13:47;50.60;;;27.00;;
37609;SDS011;23457;51.966;8.230;2024-03-08T06:16:13;52.15;;;26.85;;
37609;SDS011;23457;51.966;8.230;2024-03-08T06:18:40;53.85;;;27.15;;
37609;SDS011;23457;51.966;8.230;2024-03-08T06:21:08;56.00;;;26.92;;
37609;SDS011;23457;51.966;8.230;2024-03-08T06:23:38;46.47;;;26.40;;
37609;SDS011;23457;51.966;8.230;2024-03-08T06:26:06;59.83;;;28.75;;
37609;SDS011;23457;51.966;8.230;2024-03-08T06:28:33;52.60;;;27.83;;
37609;SDS011;23457;51.966;8.230;2024-03-08T06:31:01;52.30;;;26.85;;
37609;SDS011;23457;51.966;8.230;2024-03-08T06:33:28;51.72;;;27.08;;
37609;SDS011;23457;51.966;8.230;2024-03-08T06:35:56;52.70;;;27.05;;
37609;SDS011;23457;51.966;8.230;2024-03-08T06:38:24;51.15;;;27.80;;
37609;SDS011;23457;51.966;8.230;2024-03-08T06:40:51;53.00;;;27.23;;
37609;SDS011;23457;51.966;8.230;2024-03-08T06:43:21;54.40;;;27.83;;
37609;SDS011;23457;51.966;8.230;2024-03-08T06:45:48;51.83;;;28.40;;
37609;SDS011;23457;51.966;8.230;2024-03-08T06:48:16;51.25;;;26.98;;
37609;SDS011;23457;51.966;8.230;2024-03-08T06:50:44;54.13;;;27.40;;
37609;SDS011;23457;51.966;8.230;2024-03-08T06:53:11;55.53;;;28.98;;
37609;SDS011;23457;51.966;8.230;2024-03-08T06:55:39;55.15;;;28.55;;
37609;SDS011;23457;51.966;8.230;2024-03-08T06:58:06;58.95;;;29.98;;
37609;SDS011;23457;51.966;8.230;2024-03-08T07:00:33;60.40;;;29.40;;
37609;SDS011;23457;51.966;8.230;2024-03-08T07:03:00;59.50;;;29.50;;
37609;SDS011;23457;51.966;8.230;2024-03-08T07:05:29;62.05;;;29.42;;
37609;SDS011;23457;51.966;8.230;2024-03-08T07:07:57;60.53;;;31.00;;
37609;SDS011;23457;51.966;8.230;2024-03-08T07:10:24;62.28;;;30.98;;
37609;SDS011;23457;51.966;8.230;2024-03-08T07:12:52;64.15;;;30.45;;
37609;SDS011;23457;51.966;8.230;2024-03-08T07:15:22;63.95;;;28.50;;
37609;SDS011;23457;51.966;8.230;2024-03-08T07:17:49;56.25;;;28.83;;
37609;SDS011;23457;51.966;8.230;2024-03-08T07:20:19;61.22;;;29.33;;
37609;SDS011;23457;51.966;8.230;2024-03-08T07:22:46;52.35;;;27.63;;
37609;SDS011;23457;51.966;8.230;2024-03-08T07:25:19;52.03;;;27.92;;
37609;SDS011;23457;51.966;8.230;2024-03-08T07:27:48;54.67;;;27.77;;
37609;SDS011;23457;51.966;8.230;2024-03-08T07:30:15;51.28;;;28.17;;
37609;SDS011;23457;51.966;8.230;2024-03-08T07:33:03;53.90;;;28.55;;
37609;SDS011;23457;51.966;8.230;2024-03-08T07:35:30;52.78;;;26.73;;
37609;SDS011;23457;51.966;8.230;2024-03-08T07:37:57;53.22;;;28.35;;
37609;SDS011;23457;51.966;8.230;2024-03-08T07:40:26;50.20;;;26.83;;
37609;SDS011;23457;51.966;8.230;2024-03-08T07:42:53;53.92;;;27.98;;
37609;SDS011;23457;51.966;8.230;2024-03-08T07:45:19;52.38;;;28.27;;
37609;SDS011;23457;51.966;8.230;2024-03-08T07:47:48;54.60;;;28.20;;
37609;SDS011;23457;51.966;8.230;2024-03-08T07:50:15;51.90;;;27.48;;
37609;SDS011;23457;51.966;8.230;2024-03-08T07:52:43;50.92;;;27.10;;
37609;SDS011;23457;51.966;8.230;2024-03-08T07:55:10;53.33;;;27.38;;
37609;SDS011;23457;51.966;8.230;2024-03-08T08:00:06;50.53;;;27.92;;
37609;SDS011;23457;51.966;8.230;2024-03-08T08:02:34;50.47;;;27.33;;
37609;SDS011;23457;51.966;8.230;2024-03-08T08:05:06;53.00;;;28.45;;
37609;SDS011;23457;51.966;8.230;2024-03-08T08:07:33;49.85;;;28.13;;
37609;SDS011;23457;51.966;8.230;2024-03-08T08:10:00;50.15;;;27.70;;
37609;SDS011;23457;51.966;8.230;2024-03-08T08:12:27;50.92;;;27.13;;
37609;SDS011;23457;51.966;8.230;2024-03-08T08:14:55;45.88;;;26.40;;
37609;SDS011;23457;51.966;8.230;2024-03-08T08:17:23;48.33;;;26.75;;
37609;SDS011;23457;51.966;8.230;2024-03-08T08:19:49;48.58;;;26.52;;
37609;SDS011;23457;51.966;8.230;2024-03-08T08:22:16;51.08;;;27.00;;
37609;SDS011;23457;51.966;8.230;2024-03-08T08:24:44;49.58;;;26.88;;
37609;SDS011;23457;51.966;8.230;2024-03-08T08:27:11;51.63;;;27.25;;
37609;SDS011;23457;51.966;8.230;2024-03-08T08:29:38;49.10;;;27.05;;
37609;SDS011;23457;51.966;8.230;2024-03-08T08:32:05;46.70;;;26.50;;
37609;SDS011;23457;51.966;8.230;2024-03-08T08:34:31;43.67;;;25.42;;
37609;SDS011;23457;51.966;8.230;2024-03-08T08:36:58;48.38;;;27.95;;
37609;SDS011;23457;51.966;8.230;2024-03-08T08:39:25;51.17;;;26.95;;
37609;SDS011;23457;51.966;8.230;2024-03-08T08:41:52;48.70;;;25.95;;
37609;SDS011;23457;51.966;8.230;2024-03-08T08:44:21;51.92;;;28.17;;
37609;SDS011;23457;51.966;8.230;2024-03-08T08:46:48;47.17;;;27.08;;
37609;SDS011;23457;51.966;8.230;2024-03-08T08:49:16;47.22;;;26.55;;
37609;SDS011;23457;51.966;8.230;2024-03-08T08:51:50;44.75;;;26.75;;
37609;SDS011;23457;51.966;8.230;2024-03-08T08:54:19;43.13;;;25.75;;
37609;SDS011;23457;51.966;8.230;2024-03-08T08:56:47;41.63;;;24.52;;
37609;SDS011;23457;51.966;8.230;2024-03-08T08:59:14;43.60;;;25.13;;
37609;SDS011;23457;51.966;8.230;2024-03-08T09:01:40;44.67;;;25.70;;
37609;SDS011;23457;51.966;8.230;2024-03-08T09:04:07;45.70;;;25.40;;
37609;SDS011;23457;51.966;8.230;2024-03-08T09:06:34;45.63;;;26.45;;
37609;SDS011;23457;51.966;8.230;2024-03-08T09:09:02;40.90;;;24.05;;
37609;SDS011;23457;51.966;8.230;2024-03-08T09:11:32;41.97;;;25.02;;
37609;SDS011;23457;51.966;8.230;2024-03-08T09:13:59;40.50;;;24.20;;
37609;SDS011;23457;51.966;8.230;2024-03-08T09:16:26;42.67;;;24.73;;
37609;SDS011;23457;51.966;8.230;2024-03-08T09:18:52;41.75;;;25.60;;
37609;SDS011;23457;51.966;8.230;2024-03-08T09:21:19;38.65;;;24.77;;
37609;SDS011;23457;51.966;8.230;2024-03-08T09:23:49;42.20;;;24.02;;
37609;SDS011;23457;51.966;8.230;2024-03-08T09:26:16;43.92;;;24.67;;
37609;SDS011;23457;51.966;8.230;2024-03-08T09:28:53;41.17;;;23.63;;
37609;SDS011;23457;51.966;8.230;2024-03-08T09:33:50;40.50;;;23.67;;
37609;SDS011;23457;51.966;8.230;2024-03-08T09:36:17;41.17;;;23.85;;
37609;SDS011;23457;51.966;8.230;2024-03-08T09:38:43;41.55;;;24.48;;
37609;SDS011;23457;51.966;8.230;2024-03-08T09:41:10;40.55;;;23.38;;
37609;SDS011;23457;51.966;8.230;2024-03-08T09:43:37;37.28;;;22.42;;
37609;SDS011;23457;51.966;8.230;2024-03-08T09:46:04;37.10;;;22.23;;
37609;SDS011;23457;51.966;8.230;2024-03-08T09:48:34;39.95;;;22.95;;
37609;SDS011;23457;51.966;8.230;2024-03-08T09:51:02;40.47;;;22.27;;
37609;SDS011;23457;51.966;8.230;2024-03-08T09:53:30;39.97;;;23.13;;
37609;SDS011;23457;51.966;8.230;2024-03-08T09:55:57;38.35;;;22.95;;
37609;SDS011;23457;51.966;8.230;2024-03-08T09:58:26;40.63;;;23.50;;
37609;SDS011;23457;51.966;8.230;2024-03-08T10:01:02;39.33;;;22.98;;
37609;SDS011;23457;51.966;8.230;2024-03-08T10:03:31;38.65;;;22.30;;
37609;SDS011;23457;51.966;8.230;2024-03-08T10:05:59;36.13;;;22.48;;
37609;SDS011;23457;51.966;8.230;2024-03-08T10:08:27;34.30;;;20.83;;
37609;SDS011;23457;51.966;8.230;2024-03-08T10:10:57;35.47;;;21.17;;
37609;SDS011;23457;51.966;8.230;2024-03-08T10:13:25;34.75;;;22.00;;
37609;SDS011;23457;51.966;8.230;2024-03-08T10:15:55;38.28;;;21.85;;
37609;SDS011;23457;51.966;8.230;2024-03-08T10:18:22;36.92;;;21.85;;
37609;SDS011;23457;51.966;8.230;2024-03-08T10:21:08;35.63;;;21.85;;
37609;SDS011;23457;51.966;8.230;2024-03-08T10:23:37;39.45;;;22.35;;
37609;SDS011;23457;51.966;8.230;2024-03-08T10:26:10;38.13;;;22.25;;
37609;SDS011;23457;51.966;8.230;2024-03-08T10:28:44;36.25;;;22.13;;
37609;SDS011;23457;51.966;8.230;2024-03-08T10:31:11;34.70;;;21.73;;
37609;SDS011;23457;51.966;8.230;2024-03-08T10:33:42;36.92;;;22.58;;
37609;SDS011;23457;51.966;8.230;2024-03-08T10:36:09;35.22;;;21.33;;
37609;SDS011;23457;51.966;8.230;2024-03-08T10:38:37;34.60;;;20.95;;
37609;SDS011;23457;51.966;8.230;2024-03-08T10:41:11;34.65;;;20.48;;
37609;SDS011;23457;51.966;8.230;2024-03-08T10:49:30;34.10;;;20.00;;
37609;SDS011;23457;51.966;8.230;2024-03-08T10:52:05;29.55;;;18.15;;
37609;SDS011;23457;51.966;8.230;2024-03-08T10:54:36;31.08;;;18.60;;
37609;SDS011;23457;51.966;8.230;2024-03-08T10:57:12;29.75;;;19.05;;
37609;SDS011;23457;51.966;8.230;2024-03-08T10:59:40;31.25;;;19.52;;
37609;SDS011;23457;51.966;8.230;2024-03-08T11:02:12;30.13;;;18.75;;
37609;SDS011;23457;51.966;8.230;2024-03-08T11:04:41;29.98;;;17.77;;
37609;SDS011;23457;51.966;8.230;2024-03-08T11:07:12;30.83;;;17.52;;
37609;SDS011;23457;51.966;8.230;2024-03-08T11:09:43;28.60;;;17.70;;
37609;SDS011;23457;51.966;8.230;2024-03-08T11:14:46;26.10;;;16.27;;
37609;SDS011;23457;51.966;8.230;2024-03-08T11:17:15;24.30;;;15.70;;
37609;SDS011;23457;51.966;8.230;2024-03-08T11:19:47;27.15;;;15.60;;
37609;SDS011;23457;51.966;8.230;2024-03-08T11:22:21;28.02;;;18.10;;
37609;SDS011;23457;51.966;8.230;2024-03-08T11:24:53;26.48;;;16.67;;
37609;SDS011;23457;51.966;8.230;2024-03-08T11:27:31;24.38;;;14.82;;
37609;SDS011;23457;51.966;8.230;2024-03-08T11:30:00;24.75;;;14.68;;
37609;SDS011;23457;51.966;8.230;2024-03-08T11:32:44;23.98;;;15.27;;
37609;SDS011;23457;51.966;8.230;2024-03-08T11:35:19;25.58;;;15.75;;
37609;SDS011;23457;51.966;8.230;2024-03-08T11:37:47;24.88;;;15.73;;
37609;SDS011;23457;51.966;8.230;2024-03-08T11:40:14;26.15;;;15.60;;
37609;SDS011;23457;51.966;8.230;2024-03-08T11:42:46;25.30;;;15.98;;
37609;SDS011;23457;51.966;8.230;2024-03-08T11:45:18;25.20;;;15.77;;
37609;SDS011;23457;51.966;8.230;2024-03-08T11:47:47;26.48;;;16.23;;
37609;SDS011;23457;51.966;8.230;2024-03-08T11:50:16;24.27;;;15.27;;
37609;SDS011;23457;51.966;8.230;2024-03-08T11:52:46;24.98;;;15.50;;
37609;SDS011;23457;51.966;8.230;2024-03-08T11:55:13;22.35;;;14.60;;
37609;SDS011;23457;51.966;8.230;2024-03-08T11:57:40;26.60;;;15.25;;
37609;SDS011;23457;51.966;8.230;2024-03-08T12:00:14;24.75;;;15.43;;
37609;SDS011;23457;51.966;8.230;2024-03-08T12:03:03;22.08;;;14.60;;
37609;SDS011;23457;51.966;8.230;2024-03-08T12:05:33;22.55;;;14.57;;
37609;SDS011;23457;51.966;8.230;2024-03-08T12:08:00;25.17;;;15.70;;
37609;SDS011;23457;51.966;8.230;2024-03-08T12:10:28;24.58;;;15.88;;
37609;SDS011;23457;51.966;8.230;2024-03-08T12:12:57;25.92;;;16.13;;
37609;SDS011;23457;51.966;8.230;2024-03-08T12:15:28;25.42;;;15.75;;
37609;SDS011;23457;51.966;8.230;2024-03-08T12:17:55;25.05;;;16.25;;
37609;SDS011;23457;51.966;8.230;2024-03-08T12:22:54;23.50;;;15.38;;
37609;SDS011;23457;51.966;8.230;2024-03-08T12:25:33;26.10;;;15.85;;
37609;SDS011;23457;51.966;8.230;2024-03-08T12:28:07;24.70;;;16.30;;
37609;SDS011;23457;51.966;8.230;2024-03-08T12:30:46;26.45;;;16.63;;
37609;SDS011;23457;51.966;8.230;2024-03-08T12:33:14;24.60;;;16.25;;
37609;SDS011;23457;51.966;8.230;2024-03-08T12:35:49;24.23;;;16.75;;
37609;SDS011;23457;51.966;8.230;2024-03-08T12:38:17;24.00;;;16.50;;
37609;SDS011;23457;51.966;8.230;2024-03-08T12:40:43;33.05;;;18.38;;
37609;SDS011;23457;51.966;8.230;2024-03-08T12:43:10;37.50;;;21.55;;
37609;SDS011;23457;51.966;8.230;2024-03-08T12:45:38;32.20;;;19.65;;
37609;SDS011;23457;51.966;8.230;2024-03-08T12:48:11;31.20;;;20.33;;
37609;SDS011;23457;51.966;8.230;2024-03-08T12:50:40;32.60;;;19.83;;
37609;SDS011;23457;51.966;8.230;2024-03-08T12:53:10;33.40;;;19.40;;
37609;SDS011;23457;51.966;8.230;2024-03-08T12:55:36;30.83;;;19.13;;
37609;SDS011;23457;51.966;8.230;2024-03-08T12:58:04;29.27;;;18.42;;
37609;SDS011;23457;51.966;8.230;2024-03-08T13:00:34;28.25;;;18.10;;
37609;SDS011;23457;51.966;8.230;2024-03-08T13:03:03;29.55;;;17.65;;
37609;SDS011;23457;51.966;8.230;2024-03-08T13:05:30;35.17;;;19.58;;
37609;SDS011;23457;51.966;8.230;2024-03-08T13:07:56;30.73;;;18.98;;
37609;SDS011;23457;51.966;8.230;2024-03-08T13:10:23;28.50;;;17.15;;
37609;SDS011;23457;51.966;8.230;2024-03-08T13:12:50;27.52;;;17.38;;
37609;SDS011;23457;51.966;8.230;2024-03-08T13:15:20;25.42;;;17.05;;
37609;SDS011;23457;51.966;8.230;2024-03-08T13:17:47;27.13;;;16.90;;
37609;SDS011;23457;51.966;8.230;2024-03-08T13:20:15;26.45;;;15.90;;
37609;SDS011;23457;51.966;8.230;2024-03-08T13:22:58;29.98;;;17.45;;
37609;SDS011;23457;51.966;8.230;2024-03-08T13:25:28;26.85;;;16.88;;
37609;SDS011;23457;51.966;8.230;2024-03-08T13:27:55;25.90;;;15.48;;
37609;SDS011;23457;51.966;8.230;2024-03-08T13:30:23;27.40;;;16.80;;
37609;SDS011;23457;51.966;8.230;2024-03-08T13:32:53;25.02;;;15.95;;
37609;SDS011;23457;51.966;8.230;2024-03-08T13:35:20;25.75;;;16.10;;
37609;SDS011;23457;51.966;8.230;2024-03-08T13:37:58;27.55;;;17.45;;
37609;SDS011;23457;51.966;8.230;2024-03-08T13:40:25;23.48;;;14.98;;
37609;SDS011;23457;51.966;8.230;2024-03-08T13:42:53;22.25;;;14.00;;
37609;SDS011;23457;51.966;8.230;2024-03-08T13:45:20;22.17;;;14.45;;
37609;SDS011;23457;51.966;8.230;2024-03-08T13:47:51;21.25;;;14.02;;
37609;SDS011;23457;51.966;8.230;2024-03-08T13:50:20;21.10;;;13.90;;
37609;SDS011;23457;51.966;8.230;2024-03-08T13:52:50;19.92;;;13.38;;
37609;SDS011;23457;51.966;8.230;2024-03-08T13:55:23;22.13;;;13.55;;
37609;SDS011;23457;51.966;8.230;2024-03-08T13:57:52;19.55;;;13.35;;
37609;SDS011;23457;51.966;8.230;2024-03-08T14:00:19;22.48;;;14.15;;
37609;SDS011;23457;51.966;8.230;2024-03-08T14:02:49;25.25;;;14.65;;
37609;SDS011;23457;51.966;8.230;2024-03-08T14:05:16;24.08;;;15.05;;
37609;SDS011;23457;51.966;8.230;2024-03-08T14:07:45;26.35;;;16.17;;
37609;SDS011;23457;51.966;8.230;2024-03-08T14:10:16;26.65;;;15.68;;
37609;SDS011;23457;51.966;8.230;2024-03-08T14:12:46;29.38;;;18.63;;
37609;SDS011;23457;51.966;8.230;2024-03-08T14:15:15;29.45;;;17.95;;
37609;SDS011;23457;51.966;8.230;2024-03-08T14:17:44;33.60;;;18.00;;
37609;SDS011;23457;51.966;8.230;2024-03-08T14:20:12;31.20;;;18.38;;
37609;SDS011;23457;51.966;8.230;2024-03-08T14:22:40;27.67;;;17.13;;
37609;SDS011;23457;51.966;8.230;2024-03-08T14:25:09;27.75;;;18.13;;
37609;SDS011;23457;51.966;8.230;2024-03-08T14:27:44;26.70;;;18.10;;
37609;SDS011;23457;51.966;8.230;2024-03-08T14:30:14;33.72;;;18.02;;
37609;SDS011;23457;51.966;8.230;2024-03-08T14:32:58;29.10;;;18.95;;
37609;SDS011;23457;51.966;8.230;2024-03-08T14:35:28;27.58;;;16.92;;
37609;SDS011;23457;51.966;8.230;2024-03-08T14:37:55;23.27;;;16.27;;
37609;SDS011;23457;51.966;8.230;2024-03-08T14:40:26;22.80;;;15.60;;
37609;SDS011;23457;51.966;8.230;2024-03-08T14:42:53;27.17;;;17.35;;
37609;SDS011;23457;51.966;8.230;2024-03-08T14:45:20;25.67;;;16.48;;
37609;SDS011;23457;51.966;8.230;2024-03-08T14:47:47;28.00;;;17.38;;
37609;SDS011;23457;51.966;8.230;2024-03-08T14:50:18;28.23;;;16.90;;
37609;SDS011;23457;51.966;8.230;2024-03-08T14:52:45;28.42;;;16.77;;